METAR Data
IDs: Format: Raw Decoded Include TAF

Data at: 0811 UTC 18 Sep 2021

EDLP 180750Z VRB02KT 7000 FEW024 14/14 Q1017